createdAt,value
2019-02-03T00:02:05.148Z,94.75
2019-02-03T00:04:54.876Z,94.70
2019-02-03T00:07:44.136Z,94.08
2019-02-03T00:10:34.169Z,94.08
2019-02-03T00:13:23.235Z,94.08
2019-02-03T00:16:12.419Z,93.96
2019-02-03T00:19:19.832Z,94.13
2019-02-03T00:22:09.932Z,93.47
2019-02-03T00:25:01.904Z,93.47
2019-02-03T00:27:52.366Z,92.76
2019-02-03T00:30:43.941Z,92.76
2019-02-03T00:33:33.413Z,93.12
2019-02-03T00:36:22.619Z,93.23
2019-02-03T00:39:11.373Z,93.24
2019-02-03T00:42:00.471Z,93.29
2019-02-03T00:48:05.996Z,93.62
2019-02-03T00:50:54.698Z,94.08
2019-02-03T00:53:43.582Z,94.00
2019-02-03T00:56:32.229Z,93.69
2019-02-03T00:59:21.257Z,93.48
2019-02-03T01:02:09.905Z,93.48
2019-02-03T01:04:59.116Z,93.33
2019-02-03T01:07:48.877Z,93.33
2019-02-03T01:10:37.608Z,93.52
2019-02-03T01:13:26.294Z,93.52
2019-02-03T01:16:14.797Z,93.29
2019-02-03T01:19:03.606Z,93.26
2019-02-03T01:21:52.376Z,93.33
2019-02-03T01:24:41.353Z,93.37
2019-02-03T01:27:30.383Z,93.33
2019-02-03T01:30:19.875Z,93.33
2019-02-03T01:33:08.887Z,93.33
2019-02-03T01:35:57.709Z,93.00
2019-02-03T01:38:46.082Z,92.79
2019-02-03T01:41:34.277Z,92.58
2019-02-03T01:44:23.233Z,92.58
2019-02-03T01:47:11.795Z,92.73
2019-02-03T01:49:59.994Z,92.73
2019-02-03T01:52:49.070Z,92.96
2019-02-03T01:55:38.087Z,92.96
2019-02-03T01:58:27.029Z,93.15
2019-02-03T02:01:15.514Z,93.18
2019-02-03T02:04:04.779Z,93.18
2019-02-03T02:06:53.514Z,92.96
2019-02-03T02:09:41.703Z,92.95
2019-02-03T02:12:30.642Z,92.95
2019-02-03T02:15:19.654Z,93.10
2019-02-03T02:18:08.809Z,93.07
2019-02-03T02:20:57.171Z,92.82
2019-02-03T02:23:46.367Z,92.60
2019-02-03T02:26:36.597Z,92.63
2019-02-03T02:29:25.001Z,92.53
2019-02-03T02:32:13.745Z,92.11
2019-02-03T02:35:03.445Z,92.11
2019-02-03T02:38:06.004Z,92.07
2019-02-03T02:40:42.937Z,92.65
2019-02-03T02:43:31.555Z,92.13
2019-02-03T02:46:20.415Z,92.12
2019-02-03T02:49:09.577Z,92.12
2019-02-03T02:52:03.453Z,91.85
2019-02-03T02:54:52.873Z,91.63
2019-02-03T02:57:41.125Z,91.70
2019-02-03T03:00:29.842Z,91.70
2019-02-03T03:03:19.089Z,91.94
2019-02-03T03:06:08.358Z,91.84
2019-02-03T03:08:57.589Z,92.04
2019-02-03T03:11:46.519Z,92.02
2019-02-03T03:14:36.539Z,92.24
2019-02-03T03:17:25.054Z,92.62
2019-02-03T03:20:15.568Z,92.58
2019-02-03T03:23:04.979Z,92.41
2019-02-03T03:25:53.420Z,92.52
2019-02-03T03:28:42.630Z,92.52
2019-02-03T03:31:31.013Z,92.34
2019-02-03T03:34:19.479Z,92.27
2019-02-03T03:37:08.046Z,91.93
2019-02-03T03:39:57.621Z,91.95
2019-02-03T03:42:46.663Z,92.04
2019-02-03T03:45:35.742Z,92.26
2019-02-03T03:48:24.418Z,92.18
2019-02-03T03:51:13.865Z,92.55
2019-02-03T03:54:03.526Z,92.90
2019-02-03T03:56:52.075Z,92.90
2019-02-03T03:59:40.530Z,92.79
2019-02-03T04:02:29.594Z,93.08
2019-02-03T04:05:19.162Z,93.26
2019-02-03T04:08:08.333Z,92.87
2019-02-03T04:10:57.512Z,92.48
2019-02-03T04:13:46.844Z,92.39
2019-02-03T04:16:36.720Z,92.19
2019-02-03T04:19:26.084Z,92.15
2019-02-03T04:22:14.725Z,92.44
2019-02-03T04:25:03.941Z,92.87
2019-02-03T04:27:52.870Z,92.97
2019-02-03T04:30:42.112Z,92.84
2019-02-03T04:33:31.368Z,92.56
2019-02-03T04:36:20.078Z,92.48
2019-02-03T04:39:09.178Z,92.47
2019-02-03T04:41:58.697Z,92.53
2019-02-03T04:44:47.206Z,92.37
2019-02-03T04:47:35.986Z,92.35
2019-02-03T04:50:24.800Z,92.46
2019-02-03T04:53:13.753Z,92.20
2019-02-03T04:56:02.184Z,92.27
2019-02-03T04:58:50.396Z,92.22
2019-02-03T05:01:39.188Z,92.20
2019-02-03T05:04:27.649Z,92.32
2019-02-03T05:07:18.202Z,92.39
2019-02-03T05:10:09.352Z,92.62
2019-02-03T05:12:58.025Z,92.75
2019-02-03T05:15:46.400Z,92.49
2019-02-03T05:18:35.128Z,92.92
2019-02-03T05:21:24.294Z,93.08
2019-02-03T05:24:14.020Z,93.27
2019-02-03T05:27:02.426Z,93.44
2019-02-03T05:29:51.386Z,93.47
2019-02-03T05:32:39.974Z,93.28
2019-02-03T05:35:28.127Z,93.25
2019-02-03T05:38:17.746Z,93.54
2019-02-03T05:41:06.616Z,94.00
2019-02-03T05:43:54.773Z,94.50
2019-02-03T05:46:43.070Z,94.95
2019-02-03T05:49:31.871Z,95.14
2019-02-03T05:52:21.074Z,95.22
2019-02-03T05:55:10.078Z,95.15
2019-02-03T05:57:59.822Z,95.16
2019-02-03T06:00:48.114Z,95.33
2019-02-03T06:03:36.945Z,95.45
2019-02-03T06:06:25.407Z,95.36
2019-02-03T06:09:15.145Z,95.25
2019-02-03T06:12:03.507Z,95.29
2019-02-03T06:14:51.898Z,95.39
2019-02-03T06:17:40.923Z,95.19
2019-02-03T06:20:29.835Z,95.33
2019-02-03T06:23:18.916Z,95.51
2019-02-03T06:26:07.654Z,95.58
2019-02-03T06:28:56.403Z,95.58
2019-02-03T06:31:44.553Z,95.69
2019-02-03T06:34:33.307Z,95.68
2019-02-03T06:37:22.188Z,95.29
2019-02-03T06:40:10.904Z,95.29
2019-02-03T06:43:00.002Z,95.51
2019-02-03T06:46:16.671Z,95.73
2019-02-03T06:49:09.379Z,95.88
2019-02-03T06:51:57.640Z,95.75
2019-02-03T06:54:46.242Z,95.72
2019-02-03T06:57:35.547Z,95.56
2019-02-03T07:00:24.662Z,95.44
2019-02-03T07:03:13.630Z,95.44
2019-02-03T07:06:03.397Z,95.35
2019-02-03T07:08:51.982Z,95.16
2019-02-03T07:11:41.216Z,95.22
2019-02-03T07:14:29.978Z,95.17
2019-02-03T07:17:19.338Z,95.22
2019-02-03T07:20:08.770Z,95.27
2019-02-03T07:23:27.596Z,95.32
2019-02-03T07:26:17.195Z,95.15
2019-02-03T07:29:05.800Z,94.90
2019-02-03T07:31:54.452Z,94.87
2019-02-03T07:34:42.558Z,94.90
2019-02-03T07:37:32.091Z,95.04
2019-02-03T07:40:20.304Z,95.30
2019-02-03T07:43:09.485Z,95.59
2019-02-03T07:45:58.087Z,95.87
2019-02-03T07:48:46.040Z,95.84
2019-02-03T07:51:34.538Z,95.76
2019-02-03T07:54:22.335Z,95.62
2019-02-03T07:57:11.577Z,95.59
2019-02-03T08:00:00.502Z,95.64
2019-02-03T08:02:49.131Z,95.47
2019-02-03T08:05:37.657Z,95.53
2019-02-03T08:08:26.065Z,95.60
2019-02-03T08:11:14.265Z,95.66
2019-02-03T08:14:03.265Z,95.68
2019-02-03T08:16:52.208Z,95.65
2019-02-03T08:19:40.861Z,95.42
2019-02-03T08:22:28.875Z,95.22
2019-02-03T08:25:17.960Z,95.11
2019-02-03T08:28:07.539Z,95.33
2019-02-03T08:30:56.110Z,95.33
2019-02-03T08:33:44.464Z,95.01
2019-02-03T08:36:33.443Z,94.99
2019-02-03T08:39:21.507Z,95.11
2019-02-03T08:42:09.946Z,95.25
2019-02-03T08:44:58.841Z,94.90
2019-02-03T08:47:47.272Z,94.81
2019-02-03T08:50:37.454Z,94.74
2019-02-03T08:53:26.961Z,94.52
2019-02-03T08:56:15.297Z,94.52
2019-02-03T08:59:03.968Z,94.54
2019-02-03T09:01:53.363Z,94.41
2019-02-03T09:04:42.716Z,94.49
2019-02-03T09:07:32.991Z,94.67
2019-02-03T09:10:22.617Z,94.55
2019-02-03T09:13:12.306Z,93.93
2019-02-03T09:16:01.953Z,93.70
2019-02-03T09:18:51.461Z,93.82
2019-02-03T09:21:41.055Z,94.01
2019-02-03T09:24:29.735Z,94.00
2019-02-03T09:27:18.547Z,93.83
2019-02-03T09:30:09.064Z,93.51
2019-02-03T09:32:58.398Z,93.55
2019-02-03T09:35:47.786Z,93.44
2019-02-03T09:38:36.913Z,94.00
2019-02-03T09:41:26.258Z,94.22
2019-02-03T09:44:14.721Z,94.33
2019-02-03T09:47:04.078Z,94.54
2019-02-03T09:49:53.210Z,94.30
2019-02-03T09:52:43.931Z,94.22
2019-02-03T09:55:32.575Z,94.18
2019-02-03T09:58:21.297Z,94.07
2019-02-03T10:01:09.704Z,93.95
2019-02-03T10:03:57.986Z,93.84
2019-02-03T10:06:50.852Z,93.76
2019-02-03T10:09:39.045Z,93.66
2019-02-03T10:12:28.244Z,93.42
2019-02-03T10:15:17.255Z,93.12
2019-02-03T10:18:08.104Z,92.76
2019-02-03T10:20:56.821Z,92.57
2019-02-03T10:23:45.855Z,92.92
2019-02-03T10:26:34.601Z,92.89
2019-02-03T10:29:22.953Z,92.65
2019-02-03T10:35:29.867Z,93.04
2019-02-03T10:38:18.487Z,93.48
2019-02-03T10:41:07.520Z,93.49
2019-02-03T10:43:56.706Z,93.00
2019-02-03T10:47:08.296Z,92.80
2019-02-03T10:50:01.537Z,92.27
2019-02-03T10:53:30.273Z,91.82
2019-02-03T10:56:24.323Z,91.88
2019-02-03T10:59:14.917Z,92.04
2019-02-03T11:02:04.415Z,91.77
2019-02-03T11:04:53.674Z,91.76
2019-02-03T11:07:42.817Z,91.44
2019-02-03T11:13:49.132Z,91.57
2019-02-03T11:16:42.179Z,91.46
2019-02-03T11:19:36.958Z,91.43
2019-02-03T11:22:47.463Z,90.97
2019-02-03T11:25:41.773Z,90.97
2019-02-03T11:28:32.979Z,91.56
2019-02-03T11:31:26.145Z,92.08
2019-02-03T11:34:14.730Z,92.48
2019-02-03T11:37:03.394Z,92.41
2019-02-03T11:39:52.342Z,92.18
2019-02-03T11:42:41.660Z,92.12
2019-02-03T11:48:50.307Z,92.23
2019-02-03T11:51:39.818Z,92.66
2019-02-03T11:54:28.275Z,92.66
2019-02-03T11:57:17.384Z,93.14
2019-02-03T12:00:08.229Z,93.09
2019-02-03T12:02:57.733Z,92.80
2019-02-03T12:05:46.407Z,93.18
2019-02-03T12:08:35.235Z,92.98
2019-02-03T12:11:24.686Z,92.68
2019-02-03T12:14:13.067Z,92.32
2019-02-03T12:17:02.979Z,92.04
2019-02-03T12:19:52.060Z,91.28
2019-02-03T12:22:40.751Z,91.39
2019-02-03T12:25:31.602Z,91.28
2019-02-03T12:28:19.497Z,90.92
2019-02-03T12:31:08.106Z,90.23
2019-02-03T12:33:56.442Z,90.62
2019-02-03T12:36:45.424Z,90.32
2019-02-03T12:39:35.343Z,90.19
2019-02-03T12:42:23.665Z,90.99
2019-02-03T12:45:13.951Z,91.22
2019-02-03T12:48:02.855Z,90.05
2019-02-03T12:50:51.249Z,90.60
2019-02-03T12:53:44.223Z,91.38
2019-02-03T12:56:35.727Z,91.28
2019-02-03T12:59:25.167Z,90.84
2019-02-03T13:02:19.635Z,91.67
2019-02-03T13:05:11.514Z,92.53
2019-02-03T13:08:01.376Z,92.80
2019-02-03T13:10:56.259Z,91.52
2019-02-03T13:13:44.738Z,90.34
2019-02-03T13:16:34.515Z,90.01
2019-02-03T13:19:24.140Z,90.00
2019-02-03T13:22:12.238Z,90.09
2019-02-03T13:25:02.042Z,90.05
2019-02-03T13:27:51.982Z,89.82
2019-02-03T13:30:51.228Z,89.54
2019-02-03T13:33:39.852Z,89.00
2019-02-03T13:36:28.730Z,89.78
2019-02-03T13:39:17.166Z,89.88
2019-02-03T13:42:05.545Z,89.57
2019-02-03T13:44:53.987Z,89.71
2019-02-03T13:47:42.610Z,90.59
2019-02-03T13:50:32.357Z,91.12
2019-02-03T13:53:21.318Z,90.76
2019-02-03T13:56:10.032Z,90.86
2019-02-03T13:58:58.718Z,90.90
2019-02-03T14:01:50.515Z,90.61
2019-02-03T14:04:37.720Z,90.73
2019-02-03T14:07:26.761Z,91.29
2019-02-03T14:10:17.476Z,91.30
2019-02-03T14:13:06.944Z,91.16
2019-02-03T14:15:55.584Z,91.41
2019-02-03T14:18:44.438Z,90.77
2019-02-03T14:21:33.016Z,91.03
2019-02-03T14:24:23.307Z,91.40
2019-02-03T14:27:12.857Z,90.80
2019-02-03T14:30:02.084Z,90.83
2019-02-03T14:32:51.693Z,90.49
2019-02-03T14:35:44.254Z,90.44
2019-02-03T14:38:36.568Z,90.29
2019-02-03T14:41:26.549Z,90.67
2019-02-03T14:44:15.617Z,91.35
2019-02-03T14:47:04.304Z,91.23
2019-02-03T14:49:53.299Z,90.94
2019-02-03T14:52:42.838Z,91.12
2019-02-03T14:55:36.839Z,91.25
2019-02-03T14:58:28.565Z,91.13
2019-02-03T15:01:19.556Z,91.37
2019-02-03T15:04:08.412Z,91.31
2019-02-03T15:06:57.690Z,91.31
2019-02-03T15:09:45.748Z,91.07
2019-02-03T15:12:35.531Z,91.34
2019-02-03T15:15:26.079Z,91.42
2019-02-03T15:18:16.867Z,91.18
2019-02-03T15:21:09.767Z,91.40
2019-02-03T15:23:59.778Z,91.70
2019-02-03T15:26:48.888Z,91.52
2019-02-03T15:29:38.672Z,91.78
2019-02-03T15:32:27.085Z,91.87
2019-02-03T15:35:22.679Z,91.66
2019-02-03T15:38:11.784Z,91.53
2019-02-03T15:41:00.535Z,91.41
2019-02-03T15:43:53.731Z,91.73
2019-02-03T15:46:42.356Z,91.42
2019-02-03T15:49:34.142Z,91.38
2019-02-03T15:52:23.711Z,91.37
2019-02-03T15:55:16.056Z,91.43
2019-02-03T15:58:06.597Z,91.87
2019-02-03T16:00:55.842Z,91.86
2019-02-03T16:03:47.990Z,92.17
2019-02-03T16:06:36.039Z,92.25
2019-02-03T16:09:24.419Z,92.15
2019-02-03T16:12:13.919Z,92.06
2019-02-03T16:15:02.664Z,92.29
2019-02-03T16:17:51.550Z,91.98
2019-02-03T16:20:40.722Z,92.49
2019-02-03T16:23:30.278Z,92.76
2019-02-03T16:29:45.855Z,92.35
2019-02-03T16:32:37.605Z,92.00
2019-02-03T16:35:29.678Z,92.08
2019-02-03T16:38:22.993Z,92.23
2019-02-03T16:41:12.007Z,92.31
2019-02-03T16:44:01.187Z,92.31
2019-02-03T16:46:56.443Z,92.35
2019-02-03T16:49:46.780Z,92.27
2019-02-03T16:52:38.452Z,92.22
2019-02-03T16:55:27.989Z,92.29
2019-02-03T16:58:22.064Z,92.47
2019-02-03T17:01:10.755Z,92.70
2019-02-03T17:04:05.811Z,92.64
2019-02-03T17:06:55.033Z,92.00
2019-02-03T17:09:43.686Z,90.93
2019-02-03T17:12:33.044Z,90.26
2019-02-03T17:15:31.102Z,90.62
2019-02-03T17:18:20.125Z,90.27
2019-02-03T17:21:09.254Z,91.25
2019-02-03T17:23:58.749Z,91.25
2019-02-03T17:26:47.702Z,91.65
2019-02-03T17:29:36.560Z,91.89
2019-02-03T17:32:25.267Z,91.42
2019-02-03T17:38:27.536Z,90.93
2019-02-03T17:41:16.386Z,91.16
2019-02-03T17:44:13.349Z,90.95
2019-02-03T17:46:56.468Z,91.06
2019-02-03T17:49:45.854Z,91.06
2019-02-03T17:52:39.112Z,91.00
2019-02-03T17:55:26.979Z,90.99
2019-02-03T17:58:15.565Z,90.85
2019-02-03T18:01:14.689Z,90.96
2019-02-03T18:04:03.372Z,91.28
2019-02-03T18:06:52.340Z,90.68
2019-02-03T18:09:46.169Z,90.68
2019-02-03T18:12:34.623Z,91.27
2019-02-03T18:15:23.094Z,91.09
2019-02-03T18:18:11.367Z,91.07
2019-02-03T18:20:59.743Z,90.74
2019-02-03T18:23:48.491Z,90.83
2019-02-03T18:26:41.088Z,91.40
2019-02-03T18:29:30.349Z,91.40
2019-02-03T18:32:20.015Z,91.22
2019-02-03T18:35:10.583Z,91.03
2019-02-03T18:38:00.075Z,91.13
2019-02-03T18:40:50.080Z,91.31
2019-02-03T18:43:38.949Z,91.38
2019-02-03T18:46:27.819Z,91.85
2019-02-03T18:49:16.791Z,91.57
2019-02-03T18:52:05.275Z,91.57
2019-02-03T18:54:54.445Z,91.76
2019-02-03T18:57:44.111Z,92.09
2019-02-03T19:00:34.183Z,91.74
2019-02-03T19:03:22.833Z,91.45
2019-02-03T19:06:11.170Z,91.58
2019-02-03T19:09:00.569Z,91.68
2019-02-03T19:11:49.263Z,91.79
2019-02-03T19:14:46.832Z,91.80
2019-02-03T19:17:28.052Z,91.81
2019-02-03T19:20:22.144Z,91.82
2019-02-03T19:23:14.855Z,92.02
2019-02-03T19:26:03.443Z,92.02
2019-02-03T19:28:52.141Z,92.43
2019-02-03T19:31:41.428Z,92.74
2019-02-03T19:34:44.569Z,92.81
2019-02-03T19:37:32.366Z,92.57
2019-02-03T19:40:22.751Z,92.58
2019-02-03T19:43:11.592Z,92.47
2019-02-03T19:46:00.391Z,92.29
2019-02-03T19:48:49.027Z,92.25
2019-02-03T19:51:38.462Z,91.82
2019-02-03T19:54:27.129Z,92.04
2019-02-03T19:57:16.731Z,91.92
2019-02-03T20:00:08.986Z,91.83
2019-02-03T20:02:57.923Z,92.15
2019-02-03T20:05:46.862Z,92.13
2019-02-03T20:08:36.159Z,92.41
2019-02-03T20:11:56.616Z,92.41
2019-02-03T20:14:44.880Z,92.84
2019-02-03T20:17:33.612Z,92.68
2019-02-03T20:20:25.040Z,92.47
2019-02-03T20:23:15.242Z,92.55
2019-02-03T20:26:04.757Z,92.67
2019-02-03T20:28:53.390Z,92.75
2019-02-03T20:31:42.211Z,92.71
2019-02-03T20:34:30.343Z,92.96
2019-02-03T20:37:18.919Z,92.92
2019-02-03T20:40:08.804Z,92.80
2019-02-03T20:42:58.127Z,92.71
2019-02-03T20:45:49.818Z,92.73
2019-02-03T20:48:37.330Z,92.60
2019-02-03T20:51:25.922Z,92.43
2019-02-03T20:54:14.248Z,92.26
2019-02-03T20:57:03.141Z,92.26
2019-02-03T20:59:52.357Z,92.53
2019-02-03T21:02:41.320Z,92.52
2019-02-03T21:05:30.756Z,92.51
2019-02-03T21:08:19.354Z,92.06
2019-02-03T21:11:08.975Z,92.45
2019-02-03T21:13:57.535Z,92.58
2019-02-03T21:16:46.717Z,92.74
2019-02-03T21:19:36.450Z,92.91
2019-02-03T21:22:26.643Z,92.80
2019-02-03T21:25:16.472Z,92.45
2019-02-03T21:28:05.642Z,92.77
2019-02-03T21:30:55.472Z,92.77
2019-02-03T21:33:45.280Z,92.35
2019-02-03T21:36:34.145Z,92.35
2019-02-03T21:39:24.152Z,92.36
2019-02-03T21:42:12.746Z,92.39
2019-02-03T21:45:01.662Z,92.14
2019-02-03T21:47:50.405Z,92.43
2019-02-03T21:50:39.506Z,92.37
2019-02-03T21:53:28.191Z,92.26
2019-02-03T21:56:17.181Z,92.50
2019-02-03T21:59:06.853Z,92.62
2019-02-03T22:01:55.868Z,92.20
2019-02-03T22:04:44.525Z,92.09
2019-02-03T22:07:36.301Z,92.53
2019-02-03T22:10:26.914Z,92.48
2019-02-03T22:13:15.831Z,92.95
2019-02-03T22:16:04.128Z,92.67
2019-02-03T22:18:53.929Z,92.61
2019-02-03T22:21:42.685Z,92.44
2019-02-03T22:24:30.623Z,92.51
2019-02-03T22:27:19.036Z,92.57
2019-02-03T22:30:15.112Z,92.35
2019-02-03T22:33:03.731Z,92.58
2019-02-03T22:35:52.840Z,92.35
2019-02-03T22:38:41.041Z,92.35
2019-02-03T22:41:29.993Z,92.28
2019-02-03T22:44:18.515Z,92.14
2019-02-03T22:47:07.599Z,92.01
2019-02-03T22:49:56.548Z,92.23
2019-02-03T22:52:46.771Z,91.61
2019-02-03T22:55:35.903Z,91.61
2019-02-03T22:58:24.589Z,91.52
2019-02-03T23:01:23.612Z,91.70
2019-02-03T23:04:21.973Z,91.68
2019-02-03T23:07:10.760Z,91.10
2019-02-03T23:09:59.277Z,90.92
2019-02-03T23:12:48.069Z,90.71
2019-02-03T23:15:37.098Z,89.87
2019-02-03T23:18:26.697Z,90.26
2019-02-03T23:21:16.270Z,90.33
2019-02-03T23:24:05.579Z,90.31
2019-02-03T23:26:54.951Z,90.27
2019-02-03T23:29:44.147Z,90.25
2019-02-03T23:32:33.117Z,90.08
2019-02-03T23:35:22.490Z,89.73
2019-02-03T23:38:10.988Z,89.69
2019-02-03T23:41:00.260Z,90.01
2019-02-03T23:43:48.869Z,90.29
2019-02-03T23:46:37.816Z,90.47
2019-02-03T23:49:26.022Z,90.19
2019-02-03T23:52:14.404Z,90.58
2019-02-03T23:55:02.894Z,90.49
2019-02-03T23:57:51.088Z,90.46
